Time;durP1;ratioP1;P1;durP2;ratioP2;P2;SDS_P1;SDS_P2;PMS_P1;PMS_P2;Temp;Humidity;BMP_temperature;BMP_pressure;BME280_temperature;BME280_humidity;BME280_pressure;Samples;Min_cycle;Max_cycle;Signal;HPM_P1;HPM_P2
2022/04/28 00:00:30;;;;;;;15.68;7.75;;;;;;;20.58;37.50;101303.34;5034569;28;20029;-52
2022/04/28 00:02:57;;;;;;;8.07;3.97;;;;;;;20.58;37.53;101295.19;5033930;28;20105;-52
2022/04/28 00:05:24;;;;;;;9.65;2.85;;;;;;;20.09;37.54;101303.44;5034125;28;20029;-52
2022/04/28 00:07:51;;;;;;;6.95;2.30;;;;;;;19.97;36.97;101308.25;5034024;28;20061;-52
2022/04/28 00:10:17;;;;;;;9.63;2.67;;;;;;;20.49;38.67;101294.03;5034061;28;20030;-49
2022/04/28 00:12:44;;;;;;;8.52;2.40;;;;;;;20.40;38.60;101303.72;5033744;28;20044;-53
2022/04/28 00:15:10;;;;;;;7.78;2.60;;;;;;;19.97;39.66;101305.53;5034040;28;20043;-52
2022/04/28 00:17:37;;;;;;;7.57;2.28;;;;;;;20.10;39.49;101299.69;5033952;28;20029;-52
2022/04/28 00:20:05;;;;;;;10.18;2.60;;;;;;;19.76;40.19;101299.88;5033554;28;20056;-52
2022/04/28 00:22:32;;;;;;;5.57;2.10;;;;;;;19.98;39.82;101309.88;5033788;28;20049;-52
2022/04/28 00:25:02;;;;;;;4.72;2.13;;;;;;;20.20;40.06;101310.63;5033891;28;20029;-52
2022/04/28 00:27:29;;;;;;;11.32;2.50;;;;;;;19.76;39.37;101299.06;5034020;28;20029;-52
2022/04/28 00:29:56;;;;;;;9.70;2.65;;;;;;;19.75;40.31;101295.53;5033480;28;20099;-52
2022/04/28 00:32:22;;;;;;;12.77;2.60;;;;;;;19.11;39.91;101308.88;5033508;28;20034;-52
2022/04/28 00:34:49;;;;;;;7.20;2.30;;;;;;;19.18;40.89;101311.41;5033663;28;20064;-52
2022/04/28 00:37:15;;;;;;;6.55;2.38;;;;;;;19.17;39.71;101302.44;5033376;28;20021;-51
2022/04/28 00:39:41;;;;;;;11.02;2.47;;;;;;;19.13;40.62;101301.28;5033325;28;20053;-51
2022/04/28 00:42:13;;;;;;;10.05;2.38;;;;;;;19.39;40.69;101304.34;5033421;28;20052;-51
2022/04/28 00:44:40;;;;;;;11.90;3.13;;;;;;;19.28;41.21;101305.28;5033224;28;20049;-49
2022/04/28 00:47:10;;;;;;;11.02;2.72;;;;;;;18.96;41.57;101301.34;5033124;28;20033;-49
2022/04/28 00:52:21;;;;;;;9.65;2.45;;;;;;;18.99;41.09;101308.19;5033651;28;20538;-49
2022/04/28 00:54:51;;;;;;;9.00;2.25;;;;;;;18.71;42.24;101315.38;5033025;28;20037;-51
2022/04/28 00:57:18;;;;;;;7.28;2.35;;;;;;;18.53;42.95;101307.44;5033142;28;20031;-50
2022/04/28 00:59:46;;;;;;;8.15;2.25;;;;;;;18.78;43.31;101314.38;5033062;28;20041;-49
2022/04/28 01:02:13;;;;;;;7.75;2.53;;;;;;;18.35;42.02;101319.38;5032941;28;20026;-49
2022/04/28 01:04:39;;;;;;;11.23;3.70;;;;;;;18.69;43.13;101317.50;5033213;28;20035;-49
2022/04/28 01:07:07;;;;;;;9.32;2.83;;;;;;;18.51;42.84;101325.06;5032720;28;20017;-52
2022/04/28 01:09:36;;;;;;;9.48;2.88;;;;;;;18.42;42.27;101319.22;5032956;28;20096;-49
2022/04/28 01:12:16;;;;;;;11.55;2.90;;;;;;;18.26;43.14;101311.88;5032988;28;20037;-51
2022/04/28 01:14:44;;;;;;;5.85;2.40;;;;;;;18.35;43.64;101319.38;5032495;28;20059;-49
2022/04/28 01:17:11;;;;;;;10.65;2.83;;;;;;;18.41;43.30;101325.69;5032627;28;20025;-49
2022/04/28 01:19:37;;;;;;;8.95;2.22;;;;;;;18.49;42.40;101322.59;5033171;28;20017;-52
2022/04/28 01:22:05;;;;;;;8.32;2.88;;;;;;;18.50;43.72;101323.41;5032698;28;20106;-49
2022/04/28 01:24:31;;;;;;;7.97;2.72;;;;;;;18.37;42.04;101313.69;5033089;28;20116;-50
2022/04/28 01:27:00;;;;;;;13.50;3.35;;;;;;;18.32;42.23;101321.75;5032165;28;20030;-48
2022/04/28 01:29:26;;;;;;;5.03;1.77;;;;;;;18.36;43.06;101314.78;5032466;28;20094;-49
2022/04/28 01:31:52;;;;;;;8.77;2.85;;;;;;;18.48;42.20;101319.03;5032576;28;20033;-48
2022/04/28 01:34:21;;;;;;;7.88;2.75;;;;;;;18.62;42.28;101308.69;5033226;28;20049;-49
2022/04/28 01:36:48;;;;;;;8.45;2.13;;;;;;;18.91;38.80;101322.97;5032831;28;20421;-51
2022/04/28 01:39:14;;;;;;;7.03;1.55;;;;;;;18.93;34.80;101322.72;5032579;28;20030;-51
2022/04/28 01:41:40;;;;;;;4.65;1.92;;;;;;;18.42;37.11;101324.63;5033145;28;20033;-51
2022/04/28 01:44:07;;;;;;;5.68;1.60;;;;;;;18.14;36.92;101326.31;5033418;28;20021;-50
2022/04/28 01:46:33;;;;;;;3.67;1.55;;;;;;;17.88;38.06;101321.53;5032534;28;20121;-48
2022/04/28 01:48:59;;;;;;;6.38;1.40;;;;;;;17.87;37.16;101331.53;5032662;28;20026;-51
2022/04/28 01:56:55;;;;;;;4.28;1.38;;;;;;;17.24;37.46;101320.78;5032902;28;20040;-51
2022/04/28 01:59:21;;;;;;;4.13;1.50;;;;;;;16.95;38.62;101328.00;5032474;28;20026;-49
2022/04/28 02:01:47;;;;;;;4.95;1.30;;;;;;;16.18;40.86;101323.44;5032310;28;20036;-50
2022/04/28 02:04:13;;;;;;;5.80;1.95;;;;;;;15.88;41.73;101333.41;5032380;28;20405;-49
2022/04/28 02:06:42;;;;;;;5.05;1.75;;;;;;;15.81;42.05;101334.31;5032574;28;20022;-48
2022/04/28 02:09:08;;;;;;;7.45;1.92;;;;;;;15.50;42.35;101327.25;5032761;28;20040;-48
2022/04/28 02:11:34;;;;;;;6.43;2.13;;;;;;;15.53;41.88;101326.78;5032219;28;20075;-51
2022/04/28 02:14:01;;;;;;;5.68;1.75;;;;;;;15.07;42.41;101335.41;5032277;28;20022;-51
2022/04/28 02:16:27;;;;;;;5.55;2.38;;;;;;;15.10;43.26;101331.44;5032186;28;20025;-51
2022/04/28 02:18:53;;;;;;;2.95;1.48;;;;;;;14.87;43.38;101340.16;5032247;28;20049;-50
2022/04/28 02:21:19;;;;;;;4.22;1.65;;;;;;;14.94;44.63;101338.25;5032339;28;20485;-50
2022/04/28 02:23:46;;;;;;;8.13;2.50;;;;;;;14.66;45.33;101341.41;5032320;28;20037;-48
2022/04/28 02:26:12;;;;;;;5.85;1.65;;;;;;;14.54;46.03;101343.97;5032224;28;20045;-51
2022/04/28 02:28:39;;;;;;;3.88;1.50;;;;;;;14.30;46.63;101332.13;5031643;28;20069;-48
2022/04/28 02:31:05;;;;;;;10.10;2.03;;;;;;;14.28;46.81;101347.69;5032283;28;20477;-49
2022/04/28 02:33:32;;;;;;;6.30;1.98;;;;;;;14.34;46.57;101344.13;5032431;28;20041;-50
2022/04/28 02:35:58;;;;;;;10.15;2.42;;;;;;;14.26;46.56;101342.50;5032006;28;20052;-49
2022/04/28 02:38:24;;;;;;;11.75;1.98;;;;;;;14.15;46.76;101345.06;5032384;28;20035;-49
2022/04/28 02:40:50;;;;;;;6.80;2.10;;;;;;;13.95;48.11;101362.19;5035648;28;20113;-48
2022/04/28 02:43:18;;;;;;;8.90;1.75;;;;;;;13.96;48.55;101357.63;5035807;28;20061;-49
2022/04/28 02:45:46;;;;;;;8.30;2.45;;;;;;;13.92;48.49;101370.66;5035901;28;20029;-49
2022/04/28 02:48:12;;;;;;;9.55;2.40;;;;;;;13.81;48.35;101371.34;5035744;28;20538;-48
2022/04/28 02:50:38;;;;;;;4.65;1.58;;;;;;;13.64;48.46;101370.19;5035595;28;20393;-48
2022/04/28 02:53:05;;;;;;;6.45;2.05;;;;;;;13.61;48.84;101374.16;5035608;28;20033;-48
2022/04/28 02:55:31;;;;;;;8.57;2.03;;;;;;;13.61;48.60;101371.44;5035722;28;20056;-48
2022/04/28 02:57:57;;;;;;;8.10;2.30;;;;;;;13.26;49.04;101370.94;5035344;28;20026;-47
2022/04/28 03:00:24;;;;;;;5.93;1.90;;;;;;;13.34;48.78;101378.78;5035497;28;20374;-49
2022/04/28 03:02:50;;;;;;;7.82;2.55;;;;;;;13.40;48.80;101372.56;5035118;28;20021;-48
2022/04/28 03:05:17;;;;;;;5.25;1.60;;;;;;;13.21;49.40;101376.09;5035200;28;20481;-52
2022/04/28 03:10:53;;;;;;;7.75;2.03;;;;;;;12.94;50.12;101372.63;5035222;28;20041;-48
2022/04/28 03:13:21;;;;;;;9.70;2.08;;;;;;;12.90;50.37;101372.22;5034683;28;20048;-50
2022/04/28 03:15:48;;;;;;;7.53;2.10;;;;;;;13.05;49.91;101372.00;5035109;28;20067;-48
2022/04/28 03:18:16;;;;;;;6.90;2.30;;;;;;;13.06;49.62;101378.19;5034812;28;20029;-49
2022/04/28 03:20:43;;;;;;;8.05;1.80;;;;;;;13.15;49.63;101371.53;5034840;28;20021;-51
2022/04/28 03:23:14;;;;;;;4.63;1.63;;;;;;;12.98;49.80;101373.84;5034975;28;20053;-48
2022/04/28 03:25:41;;;;;;;6.13;2.08;;;;;;;13.14;49.37;101376.09;5034737;28;20490;-51
2022/04/28 03:28:08;;;;;;;6.38;1.90;;;;;;;13.09;49.60;101367.00;5035020;28;20128;-50
2022/04/28 03:30:35;;;;;;;5.22;1.83;;;;;;;13.15;49.55;101382.28;5034781;28;20024;-48
2022/04/28 03:33:01;;;;;;;5.47;2.08;;;;;;;13.17;48.88;101378.38;5034713;28;20075;-51
2022/04/28 03:35:27;;;;;;;4.88;2.42;;;;;;;13.05;49.13;101377.38;5034695;28;20022;-51
2022/04/28 03:37:54;;;;;;;6.45;1.80;;;;;;;13.16;48.27;101370.53;5034748;28;20033;-51
2022/04/28 03:40:20;;;;;;;6.18;1.63;;;;;;;13.07;48.60;101364.53;5035126;28;20033;-51
2022/04/28 03:42:48;;;;;;;7.13;2.40;;;;;;;13.01;48.01;101369.94;5034560;28;20021;-51
2022/04/28 03:45:14;;;;;;;5.07;1.58;;;;;;;13.03;47.15;101370.53;5034589;28;20057;-50
2022/04/28 03:47:40;;;;;;;7.25;1.88;;;;;;;13.01;47.14;101369.94;5035145;28;20041;-52
2022/04/28 03:50:07;;;;;;;9.63;2.50;;;;;;;13.02;47.10;101364.34;5034307;28;20025;-51
2022/04/28 03:52:34;;;;;;;7.78;1.92;;;;;;;13.02;47.34;101361.66;5034027;28;20029;-50
2022/04/28 03:55:00;;;;;;;9.27;2.20;;;;;;;13.12;46.43;101361.22;5034325;28;20040;-51
2022/04/28 03:57:26;;;;;;;5.85;1.70;;;;;;;13.11;46.45;101364.94;5034246;28;20523;-50
2022/04/28 03:59:53;;;;;;;3.10;1.67;;;;;;;13.16;46.23;101373.22;5034077;28;20389;-51
2022/04/28 04:02:19;;;;;;;4.78;1.65;;;;;;;13.06;46.49;101370.94;5034299;28;20064;-49
2022/04/28 04:04:45;;;;;;;5.80;1.75;;;;;;;13.05;47.34;101380.06;5034081;28;20026;-49
2022/04/28 04:07:12;;;;;;;5.00;1.55;;;;;;;12.94;47.42;101392.25;5033980;28;20531;-50
2022/04/28 04:09:38;;;;;;;5.03;1.38;;;;;;;12.99;47.20;101401.53;5034094;28;20363;-49
2022/04/28 04:12:05;;;;;;;4.38;1.70;;;;;;;12.99;46.91;101401.53;5034148;28;20397;-48
2022/04/28 04:14:32;;;;;;;5.35;1.85;;;;;;;12.94;47.10;101412.94;5034110;28;20029;-48
2022/04/28 04:16:58;;;;;;;6.93;2.00;;;;;;;12.84;47.40;101418.72;5033911;28;20477;-48
2022/04/28 04:19:25;;;;;;;5.00;1.92;;;;;;;12.93;46.65;101416.63;5033623;28;20041;-48
2022/04/28 04:21:51;;;;;;;7.32;1.95;;;;;;;12.80;46.32;101406.72;5033737;28;20021;-47
2022/04/28 04:24:17;;;;;;;7.18;2.38;;;;;;;12.56;47.62;101415.41;5033907;28;20504;-48
2022/04/28 04:26:43;;;;;;;4.70;2.17;;;;;;;12.62;47.41;101410.03;5033880;28;20025;-49
2022/04/28 04:29:10;;;;;;;4.78;1.80;;;;;;;12.63;47.07;101410.84;5029120;28;20177;-47
2022/04/28 04:34:22;;;;;;;5.17;2.03;;;;;;;12.42;48.52;101420.72;5014279;28;20029;-47
2022/04/28 04:36:49;;;;;;;6.30;1.40;;;;;;;12.59;47.33;101431.09;5014713;28;20344;-47
2022/04/28 04:39:15;;;;;;;4.57;1.50;;;;;;;12.57;47.10;101427.78;5013962;28;20123;-48
2022/04/28 04:41:41;;;;;;;6.07;1.70;;;;;;;12.61;47.20;101429.03;5013767;28;20041;-47
2022/04/28 04:44:13;;;;;;;6.60;1.70;;;;;;;12.51;47.77;101424.06;5013965;28;20034;-49
2022/04/28 04:46:44;;;;;;;7.05;1.73;;;;;;;12.50;48.02;101441.22;5013931;28;20054;-47
2022/04/28 04:49:11;;;;;;;5.78;1.50;;;;;;;12.60;47.81;101427.34;5013785;28;20053;-52
2022/04/28 04:51:37;;;;;;;7.90;2.28;;;;;;;12.41;48.67;101443.25;5013559;28;20163;-52
2022/04/28 04:54:04;;;;;;;4.18;1.48;;;;;;;12.45;49.17;101432.13;5013476;28;20037;-48
2022/04/28 04:56:30;;;;;;;9.10;2.00;;;;;;;12.44;49.42;101428.59;5013369;28;20021;-50
2022/04/28 04:58:56;;;;;;;4.60;1.85;;;;;;;12.34;49.64;101439.72;5013599;28;20034;-49
2022/04/28 05:01:22;;;;;;;5.93;2.00;;;;;;;12.51;49.38;101436.66;5012907;28;20430;-50
2022/04/28 05:03:48;;;;;;;4.40;1.67;;;;;;;12.50;50.22;101426.97;5013349;28;20041;-47
2022/04/28 05:06:15;;;;;;;9.95;2.40;;;;;;;12.50;49.82;101433.16;5013246;28;20117;-51
2022/04/28 05:08:41;;;;;;;8.95;1.95;;;;;;;12.42;50.19;101436.00;5013355;28;20022;-48
2022/04/28 05:11:07;;;;;;;9.60;1.70;;;;;;;12.40;49.67;101433.53;5013134;28;20032;-50
2022/04/28 05:13:33;;;;;;;7.00;1.85;;;;;;;12.49;49.33;101433.34;5013035;28;20033;-48
2022/04/28 05:15:59;;;;;;;11.85;2.17;;;;;;;12.29;50.20;101427.94;5013207;28;20097;-49
2022/04/28 05:18:28;;;;;;;6.03;1.85;;;;;;;12.31;49.95;101429.38;5013066;28;20022;-48
2022/04/28 05:20:55;;;;;;;7.90;2.20;;;;;;;12.38;49.62;101427.56;5013215;28;20018;-48
2022/04/28 05:23:21;;;;;;;7.93;1.92;;;;;;;12.32;50.13;101428.34;5012910;28;20021;-48
2022/04/28 05:25:48;;;;;;;6.85;2.00;;;;;;;12.33;49.62;101431.88;5012909;28;20105;-48
2022/04/28 05:28:14;;;;;;;7.18;1.98;;;;;;;12.26;49.60;101431.03;5017487;28;20504;-49
2022/04/28 05:30:40;;;;;;;5.38;2.22;;;;;;;12.37;49.20;101428.56;5032789;28;20053;-49
2022/04/28 05:33:07;;;;;;;4.45;1.42;;;;;;;12.40;49.04;101438.09;5033096;28;20037;-48
2022/04/28 05:35:40;;;;;;;4.25;1.80;;;;;;;12.40;49.13;101430.84;5032621;28;20029;-49
2022/04/28 05:38:09;;;;;;;10.80;2.40;;;;;;;12.26;49.74;101439.06;5032760;28;20032;-48
2022/04/28 05:40:37;;;;;;;6.30;1.67;;;;;;;12.24;49.74;101433.91;5033295;28;20038;-48
2022/04/28 05:45:48;;;;;;;6.90;2.33;;;;;;;12.12;50.47;101435.53;5018102;28;20548;-51
2022/04/28 05:48:16;;;;;;;3.95;2.00;;;;;;;12.04;50.93;101433.84;5032612;28;20029;-51
2022/04/28 05:50:44;;;;;;;6.03;1.60;;;;;;;12.00;51.74;101429.09;5032447;28;20033;-49
2022/04/28 05:53:10;;;;;;;5.75;2.15;;;;;;;12.10;51.23;101433.06;5032555;28;20035;-51
2022/04/28 05:55:38;;;;;;;6.82;1.85;;;;;;;12.10;51.64;101437.56;5032652;28;20097;-52
2022/04/28 05:58:04;;;;;;;7.15;1.75;;;;;;;12.13;51.67;101434.50;5032373;28;20362;-48
2022/04/28 06:00:32;;;;;;;6.45;2.30;;;;;;;12.12;51.87;101432.84;5032400;28;20033;-50
2022/04/28 06:02:59;;;;;;;7.15;2.25;;;;;;;12.04;52.26;101435.69;5032456;28;20108;-51
2022/04/28 06:05:26;;;;;;;8.45;2.17;;;;;;;12.17;51.60;101422.34;5032584;28;20022;-51
2022/04/28 06:07:53;;;;;;;7.53;1.63;;;;;;;12.11;52.32;101432.03;5032272;28;20025;-51
2022/04/28 06:10:19;;;;;;;5.68;1.85;;;;;;;12.07;52.15;101429.94;5032284;28;20096;-51
2022/04/28 06:12:45;;;;;;;6.40;2.10;;;;;;;12.10;51.83;101426.84;5033063;28;20084;-51
2022/04/28 06:15:16;;;;;;;8.60;2.28;;;;;;;11.81;52.84;101434.16;5036078;28;20085;-50
2022/04/28 06:17:42;;;;;;;6.13;2.22;;;;;;;11.80;53.02;101419.06;5036222;28;20069;-49
2022/04/28 06:20:09;;;;;;;6.80;1.88;;;;;;;11.84;52.43;101423.06;5036104;28;20021;-50
2022/04/28 06:22:35;;;;;;;8.88;2.22;;;;;;;11.92;52.41;101421.22;5035977;28;20025;-51
2022/04/28 06:25:01;;;;;;;7.45;2.10;;;;;;;11.76;52.64;101433.06;5035921;28;20446;-50
2022/04/28 06:27:28;;;;;;;5.35;1.83;;;;;;;11.73;53.04;101431.63;5036136;28;20033;-50
2022/04/28 06:29:55;;;;;;;5.88;1.83;;;;;;;11.63;53.38;101426.63;5034486;28;20549;-51
2022/04/28 06:32:21;;;;;;;8.13;2.00;;;;;;;11.65;53.19;101429.09;5035790;28;20462;-51
2022/04/28 06:34:48;;;;;;;6.88;2.08;;;;;;;11.68;52.63;101420.66;5035749;28;20536;-50
2022/04/28 06:37:14;;;;;;;8.55;1.92;;;;;;;11.69;52.68;101425.00;5035655;28;20029;-50
2022/04/28 06:39:41;;;;;;;7.82;2.08;;;;;;;11.64;52.95;101422.91;5035831;28;20039;-50
2022/04/28 06:42:07;;;;;;;6.25;2.30;;;;;;;11.57;52.99;101429.28;5035697;28;20493;-50
2022/04/28 06:44:34;;;;;;;5.70;1.90;;;;;;;11.55;53.18;101426.81;5035654;28;20028;-51
2022/04/28 06:47:00;;;;;;;9.88;2.13;;;;;;;11.30;54.20;101422.94;5034395;28;20391;-51
2022/04/28 06:49:26;;;;;;;11.50;2.72;;;;;;;11.31;54.24;101433.44;5035670;28;20049;-51
2022/04/28 06:51:52;;;;;;;4.47;1.83;;;;;;;11.29;54.57;101429.31;5035568;28;20440;-51
2022/04/28 06:54:19;;;;;;;6.25;1.70;;;;;;;11.46;53.69;101435.19;5035370;28;20456;-51
2022/04/28 06:56:47;;;;;;;8.10;2.20;;;;;;;11.47;53.38;101436.84;5035281;28;20087;-51
2022/04/28 06:59:13;;;;;;;6.38;2.05;;;;;;;11.41;53.89;101437.63;5035204;28;20026;-51
2022/04/28 07:01:40;;;;;;;6.28;1.65;;;;;;;11.36;53.77;101449.75;5035469;28;20029;-52
2022/04/28 07:04:06;;;;;;;11.43;2.00;;;;;;;11.16;54.69;101447.97;5035540;28;20117;-51
2022/04/28 07:06:32;;;;;;;10.02;2.20;;;;;;;11.18;54.08;101446.75;5035246;28;20040;-51
2022/04/28 07:08:58;;;;;;;7.80;2.75;;;;;;;11.14;54.03;101441.97;5035261;28;20394;-52
2022/04/28 07:11:25;;;;;;;6.13;2.22;;;;;;;11.22;52.91;101434.63;5034869;28;20109;-52
2022/04/28 07:13:52;;;;;;;8.48;2.20;;;;;;;11.21;52.99;101430.28;5035186;28;20115;-49
2022/04/28 07:16:18;;;;;;;6.47;2.22;;;;;;;11.29;52.25;101440.88;5035352;28;20034;-50
2022/04/28 07:18:45;;;;;;;8.43;1.90;;;;;;;11.18;52.38;101437.91;5035390;28;20052;-47
2022/04/28 07:21:11;;;;;;;9.02;2.05;;;;;;;11.21;52.20;101437.50;5034944;28;20029;-49
2022/04/28 07:23:38;;;;;;;6.38;1.83;;;;;;;11.13;52.11;101438.47;5034864;28;20151;-49
2022/04/28 07:26:04;;;;;;;5.95;1.80;;;;;;;11.16;51.87;101435.44;5034898;28;20061;-51
2022/04/28 07:28:30;;;;;;;4.78;1.50;;;;;;;11.20;51.63;101446.56;5034657;28;20069;-50
2022/04/28 07:30:57;;;;;;;4.38;1.90;;;;;;;11.08;51.85;101456.97;5034920;28;20029;-49
2022/04/28 07:33:23;;;;;;;9.48;2.80;;;;;;;11.11;51.80;101453.94;5034591;28;20155;-50
2022/04/28 07:35:49;;;;;;;6.25;1.40;;;;;;;11.10;52.17;101453.09;5034812;28;20053;-50
2022/04/28 07:38:15;;;;;;;6.38;1.73;;;;;;;11.07;52.32;101447.28;5034894;28;20021;-48
2022/04/28 07:40:41;;;;;;;3.60;1.63;;;;;;;11.07;52.37;101453.47;5034968;28;20026;-49
2022/04/28 07:43:07;;;;;;;7.07;1.65;;;;;;;10.90;53.31;101452.09;5034788;28;20029;-49
2022/04/28 07:45:34;;;;;;;5.35;2.00;;;;;;;11.00;53.59;101455.28;5034637;28;20397;-51
2022/04/28 07:48:00;;;;;;;6.00;2.17;;;;;;;11.03;53.89;101456.75;5034647;28;20025;-48
2022/04/28 07:50:29;;;;;;;5.20;1.85;;;;;;;10.96;54.08;101455.88;5034264;28;20037;-50
2022/04/28 07:52:56;;;;;;;6.18;2.30;;;;;;;10.84;54.64;101456.38;5034124;28;20116;-48
2022/04/28 07:55:22;;;;;;;9.13;2.00;;;;;;;10.86;54.65;101450.00;5034235;28;20055;-49
2022/04/28 07:57:48;;;;;;;7.22;2.25;;;;;;;10.90;54.37;101452.09;5034471;28;20084;-48
2022/04/28 08:00:15;;;;;;;9.45;1.90;;;;;;;10.93;54.89;101453.56;5033118;28;20389;-48
2022/04/28 08:02:41;;;;;;;6.40;1.77;;;;;;;10.67;56.30;101448.81;5034205;28;20470;-50
2022/04/28 08:05:08;;;;;;;6.05;1.90;;;;;;;10.75;55.54;101454.03;5034164;28;20393;-52
2022/04/28 08:07:35;;;;;;;9.02;1.90;;;;;;;10.77;55.46;101447.47;5034450;28;20026;-49
2022/04/28 08:10:02;;;;;;;7.00;1.85;;;;;;;10.91;55.53;101442.22;5034270;28;20104;-51
2022/04/28 08:12:28;;;;;;;6.22;1.90;;;;;;;10.71;56.63;101437.50;5033987;28;20037;-50
2022/04/28 08:14:54;;;;;;;5.80;1.83;;;;;;;10.61;56.64;101444.22;5033837;28;20366;-50
2022/04/28 08:17:21;;;;;;;7.90;2.00;;;;;;;10.65;55.87;101443.63;5033879;28;20029;-48
2022/04/28 08:19:47;;;;;;;6.65;1.90;;;;;;;10.63;56.41;101445.69;5033945;28;20021;-51
2022/04/28 08:22:13;;;;;;;8.35;1.63;;;;;;;10.69;56.29;101450.25;5034030;28;20060;-51
2022/04/28 08:24:40;;;;;;;7.10;1.77;;;;;;;10.59;56.83;101455.09;5033991;28;20033;-50
2022/04/28 08:27:06;;;;;;;5.80;1.80;;;;;;;10.58;57.36;101456.13;5033844;28;20021;-50
2022/04/28 08:29:32;;;;;;;6.32;1.63;;;;;;;10.57;57.47;101470.53;5034169;28;20566;-50
2022/04/28 08:31:58;;;;;;;6.70;1.63;;;;;;;10.52;58.30;101465.75;5033842;28;20029;-51
2022/04/28 08:34:24;;;;;;;6.70;1.67;;;;;;;10.41;58.69;101458.22;5033825;28;20071;-51
2022/04/28 08:36:51;;;;;;;6.15;2.22;;;;;;;10.54;58.01;101460.19;5032924;28;20017;-51
2022/04/28 08:39:18;;;;;;;7.53;2.03;;;;;;;10.51;58.37;101471.31;5033568;28;20026;-52
2022/04/28 08:41:47;;;;;;;3.78;1.45;;;;;;;10.53;57.93;101463.91;5033322;28;20025;-49
2022/04/28 08:44:25;;;;;;;5.00;1.60;;;;;;;10.46;58.54;101461.16;5033573;28;20037;-48
2022/04/28 08:46:54;;;;;;;8.50;1.70;;;;;;;10.35;58.61;101463.50;5033552;28;20485;-48
2022/04/28 08:49:29;;;;;;;7.15;1.65;;;;;;;10.46;58.22;101463.84;5033378;28;20029;-48
2022/04/28 08:51:58;;;;;;;8.85;1.50;;;;;;;10.40;58.48;101456.56;5033138;28;20030;-50
2022/04/28 08:54:26;;;;;;;3.78;1.60;;;;;;;10.39;58.33;101459.44;5033360;28;20378;-48
2022/04/28 08:56:55;;;;;;;9.50;2.42;;;;;;;10.50;57.81;101459.78;5033206;28;20018;-49
2022/04/28 08:59:22;;;;;;;8.02;1.42;;;;;;;10.51;58.00;101448.03;5033206;28;20536;-51
2022/04/28 09:01:50;;;;;;;5.93;2.10;;;;;;;10.45;58.17;101456.84;5033023;28;20029;-50
2022/04/28 09:04:17;;;;;;;7.47;1.85;;;;;;;10.49;57.13;101449.22;5032875;28;20394;-51
2022/04/28 09:06:45;;;;;;;5.82;1.63;;;;;;;10.32;58.49;101456.66;5033191;28;20028;-50
2022/04/28 09:09:16;;;;;;;8.70;1.90;;;;;;;10.45;57.03;101458.69;5033336;28;20110;-51
2022/04/28 09:11:43;;;;;;;6.68;1.95;;;;;;;10.52;57.38;101446.19;5032899;28;20080;-50
2022/04/28 09:14:17;;;;;;;4.60;1.92;;;;;;;10.46;57.70;101449.63;5032762;28;20057;-51
2022/04/28 09:16:50;;;;;;;6.70;1.90;;;;;;;10.44;57.09;101443.66;5032894;28;20482;-49
2022/04/28 09:19:34;;;;;;;6.10;1.75;;;;;;;10.53;57.41;101450.50;5032991;28;20386;-51
2022/04/28 09:22:06;;;;;;;5.43;1.65;;;;;;;10.49;57.21;101444.75;5032823;28;20057;-51
2022/04/28 09:24:33;;;;;;;8.55;1.80;;;;;;;10.51;57.18;101449.88;5032793;28;20034;-50
2022/04/28 09:27:01;;;;;;;8.88;2.25;;;;;;;10.49;57.46;101449.22;5032595;28;20495;-49
2022/04/28 09:29:36;;;;;;;6.40;1.83;;;;;;;10.38;58.28;101453.25;5032378;28;20050;-51
2022/04/28 09:32:10;;;;;;;6.30;2.22;;;;;;;10.37;58.16;101456.13;5032555;28;20033;-50
2022/04/28 09:34:47;;;;;;;5.72;2.28;;;;;;;10.34;58.91;101445.81;5032784;28;20034;-49
2022/04/28 09:37:19;;;;;;;8.10;1.70;;;;;;;10.36;58.81;101441.06;5032630;28;20377;-51
2022/04/28 09:42:39;;;;;;;4.13;1.33;;;;;;;10.32;58.56;101437.94;5032987;28;20090;-47
2022/04/28 09:45:07;;;;;;;4.88;1.65;;;;;;;10.29;58.69;101444.50;5032633;28;20026;-48
2022/04/28 09:47:36;;;;;;;4.40;1.65;;;;;;;10.22;58.76;101442.75;5033118;28;20033;-48
2022/04/28 09:50:12;;;;;;;6.82;1.73;;;;;;;10.32;58.47;101446.78;5036586;28;20367;-50
2022/04/28 09:52:42;;;;;;;7.32;1.80;;;;;;;10.34;58.70;101435.09;5036570;28;20389;-52
2022/04/28 09:55:08;;;;;;;5.57;2.03;;;;;;;10.43;58.58;101433.94;5036421;28;20096;-51
2022/04/28 09:57:34;;;;;;;5.35;2.05;;;;;;;10.36;58.67;101438.41;5036397;28;20071;-51
2022/04/28 10:00:01;;;;;;;7.43;2.00;;;;;;;10.31;58.56;101438.97;5036591;28;20116;-48
2022/04/28 10:02:28;;;;;;;3.30;1.55;;;;;;;10.37;58.12;101432.84;5036597;28;20025;-51
2022/04/28 10:04:55;;;;;;;6.22;1.88;;;;;;;10.39;58.18;101433.50;5036342;28;20025;-48
2022/04/28 10:07:23;;;;;;;6.93;1.77;;;;;;;10.37;58.38;101443.56;5036282;28;20088;-51
2022/04/28 10:09:52;;;;;;;6.47;1.77;;;;;;;10.33;58.36;101444.97;5036162;28;20026;-51
2022/04/28 10:12:21;;;;;;;5.93;1.88;;;;;;;10.45;57.97;101437.28;5036000;28;20389;-48
2022/04/28 10:14:48;;;;;;;5.72;1.90;;;;;;;10.50;57.94;101441.03;5036738;28;20025;-51
2022/04/28 10:17:33;;;;;;;6.90;1.85;;;;;;;10.41;58.11;101450.19;5036763;28;20021;-51
2022/04/28 10:20:09;;;;;;;4.95;1.77;;;;;;;10.35;58.31;101450.97;5036149;28;20109;-50
2022/04/28 10:22:37;;;;;;;10.52;2.28;;;;;;;10.38;58.02;101441.72;5035957;28;20025;-48
2022/04/28 10:33:41;;;;;;;4.13;1.88;;;;;;;10.31;58.19;101457.69;5036030;28;20036;-50
2022/04/28 10:36:18;;;;;;;5.97;2.05;;;;;;;10.30;57.99;101451.53;5036063;28;20036;-50
2022/04/28 10:39:05;;;;;;;5.15;1.65;;;;;;;10.26;58.36;101457.44;5035933;28;20028;-50
2022/04/28 10:41:32;;;;;;;5.07;2.00;;;;;;;10.31;57.78;101455.03;5035623;28;20025;-51
2022/04/28 10:44:00;;;;;;;5.50;1.48;;;;;;;10.31;57.87;101460.38;5035897;28;20029;-51
2022/04/28 10:46:28;;;;;;;4.97;1.58;;;;;;;10.23;57.99;101466.69;5035769;28;20103;-49
2022/04/28 10:48:59;;;;;;;7.53;2.15;;;;;;;10.11;57.95;101462.81;5035943;28;20029;-48
2022/04/28 10:51:30;;;;;;;2.70;1.60;;;;;;;9.99;58.50;101459.78;5035292;28;20026;-51
2022/04/28 10:54:08;;;;;;;4.75;1.75;;;;;;;9.93;58.84;101460.50;5035257;28;20359;-49
2022/04/28 10:56:41;;;;;;;2.70;1.63;;;;;;;10.11;57.28;101457.47;5035402;28;20033;-50
2022/04/28 10:59:35;;;;;;;5.35;1.52;;;;;;;10.20;56.51;101456.31;5034891;28;20120;-51
2022/04/28 11:02:15;;;;;;;6.28;1.75;;;;;;;10.15;57.15;101455.22;5035444;28;20040;-48
2022/04/28 11:05:05;;;;;;;4.70;2.05;;;;;;;10.17;56.54;101456.69;5035658;28;20036;-48
2022/04/28 11:07:32;;;;;;;5.97;1.60;;;;;;;10.17;56.24;101459.38;5018567;28;20388;-48
2022/04/28 11:10:01;;;;;;;5.93;1.85;;;;;;;10.13;56.49;101458.09;5035331;28;20033;-48
2022/04/28 11:12:36;;;;;;;3.60;1.98;;;;;;;10.16;55.83;101455.03;5035105;28;20036;-48
2022/04/28 11:15:14;;;;;;;4.03;1.67;;;;;;;10.22;55.92;101450.78;5035043;28;20021;-48
2022/04/28 11:17:44;;;;;;;4.97;1.95;;;;;;;10.15;56.00;101450.69;5034923;28;20104;-48
2022/04/28 11:20:13;;;;;;;4.90;2.03;;;;;;;9.99;56.71;101449.09;5035294;28;20033;-48
2022/04/28 11:22:46;;;;;;;3.65;1.85;;;;;;;9.91;56.84;101453.69;5035006;28;20036;-48
2022/04/28 11:25:17;;;;;;;3.28;1.95;;;;;;;10.06;56.04;101454.50;5035220;28;20361;-50
2022/04/28 11:27:46;;;;;;;3.40;1.83;;;;;;;9.95;57.13;101465.69;5034750;28;20025;-48
2022/04/28 11:30:16;;;;;;;3.38;1.92;;;;;;;9.95;57.09;101458.50;5035080;28;20374;-48
2022/04/28 11:32:51;;;;;;;6.05;2.03;;;;;;;9.77;57.64;101471.41;5035387;28;20592;-50
2022/04/28 11:35:19;;;;;;;5.03;2.05;;;;;;;9.76;58.00;101464.41;5035287;28;20084;-50
2022/04/28 11:37:46;;;;;;;4.35;1.90;;;;;;;9.76;58.22;101472.41;5034855;28;20122;-49
2022/04/28 11:40:14;;;;;;;6.80;1.95;;;;;;;9.83;57.69;101475.16;5034516;28;20025;-50
2022/04/28 11:42:45;;;;;;;4.78;1.83;;;;;;;9.88;57.96;101476.28;5034366;28;20033;-48
2022/04/28 11:45:12;;;;;;;4.97;1.90;;;;;;;9.84;58.74;101477.69;5035132;28;20025;-48
2022/04/28 11:47:45;;;;;;;6.07;1.90;;;;;;;9.79;59.22;101475.56;5034433;28;20083;-47
2022/04/28 11:50:26;;;;;;;4.15;1.90;;;;;;;9.76;59.56;101483.94;5034585;28;20485;-48
2022/04/28 11:52:59;;;;;;;6.50;2.20;;;;;;;9.76;59.61;101491.13;5034408;28;20037;-48
2022/04/28 11:55:33;;;;;;;7.25;2.38;;;;;;;9.73;59.58;101491.50;5034426;28;20021;-48